Time,TemperatureF,DewpointF,PressureIn,WindDirection,WindDirectionDegrees,WindSpeedMPH,WindSpeedGustMPH,Humidity,HourlyPrecipIn,Conditions,Clouds,dailyrainin,SoftwareType,DateUTC
2013-10-14 00:07:00,41.5,32.1,30.41,SSE,148,5.0,7.0,69,0.00,,---,0.00,VWS V14.01,2013-10-14 05:07:00,
2013-10-14 00:17:00,41.1,32.4,30.40,SSE,148,0.0,4.0,71,0.00,,---,0.00,VWS V14.01,2013-10-14 05:17:00,
2013-10-14 00:22:00,40.8,32.1,30.40,SSE,148,0.0,0.0,71,0.00,,---,0.00,VWS V14.01,2013-10-14 05:22:00,
2013-10-14 00:32:00,40.3,32.3,30.40,SSE,148,0.0,3.0,73,0.00,,---,0.00,VWS V14.01,2013-10-14 05:32:00,
2013-10-14 00:37:00,40.3,32.3,30.41,SSE,148,2.0,3.0,73,0.00,,---,0.00,VWS V14.01,2013-10-14 05:37:00,
2013-10-14 00:42:00,40.4,32.1,30.40,SSE,152,2.0,4.0,72,0.00,,---,0.00,VWS V14.01,2013-10-14 05:42:00,
2013-10-14 00:47:00,40.4,32.1,30.41,SSE,153,0.0,3.0,72,0.00,,---,0.00,VWS V14.01,2013-10-14 05:47:00,
2013-10-14 00:52:00,40.4,32.1,30.41,SSE,153,0.0,4.0,72,0.00,,---,0.00,VWS V14.01,2013-10-14 05:52:00,
2013-10-14 00:57:00,40.4,32.4,30.41,SSE,152,0.0,4.0,73,0.00,,---,0.00,VWS V14.01,2013-10-14 05:57:00,
2013-10-14 01:07:00,40.4,31.8,30.41,South,173,4.0,7.0,71,0.00,,---,0.00,VWS V14.01,2013-10-14 06:07:00,
2013-10-14 01:12:00,40.5,31.9,30.41,SSE,152,0.0,6.0,71,0.00,,---,0.00,VWS V14.01,2013-10-14 06:12:00,
2013-10-14 01:17:00,40.4,31.8,30.42,SSE,161,2.0,5.0,71,0.00,,---,0.00,VWS V14.01,2013-10-14 06:17:00,
2013-10-14 01:22:00,40.2,31.9,30.42,SSE,163,0.0,4.0,72,0.00,,---,0.00,VWS V14.01,2013-10-14 06:22:00,
2013-10-14 01:32:00,40.1,31.8,30.42,South,172,1.0,6.0,72,0.00,,---,0.00,VWS V14.01,2013-10-14 06:32:00,
2013-10-14 01:42:00,40.1,31.5,30.42,SSE,155,5.0,7.0,71,0.00,,---,0.00,VWS V14.01,2013-10-14 06:42:00,
2013-10-14 01:47:00,40.4,31.8,30.42,SSE,168,2.0,6.0,71,0.00,,---,0.00,VWS V14.01,2013-10-14 06:47:00,
2013-10-14 01:57:00,40.5,31.5,30.42,South,178,3.0,8.0,70,0.00,,---,0.00,VWS V14.01,2013-10-14 06:57:00,
2013-10-14 02:02:00,40.6,31.6,30.42,SSE,158,0.0,6.0,70,0.00,,---,0.00,VWS V14.01,2013-10-14 07:02:00,
2013-10-14 02:12:00,39.9,31.6,30.42,SSE,160,0.0,5.0,72,0.00,,---,0.00,VWS V14.01,2013-10-14 07:12:00,
2013-10-14 02:17:00,39.9,31.3,30.43,SSE,160,0.0,5.0,71,0.00,,---,0.00,VWS V14.01,2013-10-14 07:17:00,
2013-10-14 02:22:00,40.0,31.4,30.43,South,182,3.0,6.0,71,0.00,,---,0.00,VWS V14.01,2013-10-14 07:22:00,
2013-10-14 02:32:00,40.6,30.9,30.43,SSE,167,6.0,10.0,68,0.00,,---,0.00,VWS V14.01,2013-10-14 07:32:00,
2013-10-14 02:37:00,40.8,30.7,30.43,South,182,1.0,6.0,67,0.00,,---,0.00,VWS V14.01,2013-10-14 07:37:00,
2013-10-14 02:47:00,40.9,31.2,30.43,South,177,0.0,7.0,68,0.00,,---,0.00,VWS V14.01,2013-10-14 07:47:00,
2013-10-14 02:57:00,40.7,31.3,30.43,South,177,1.0,5.0,69,0.00,,---,0.00,VWS V14.01,2013-10-14 07:57:00,
2013-10-14 03:07:00,40.7,30.6,30.44,South,172,5.0,6.0,67,0.00,,---,0.00,VWS V14.01,2013-10-14 08:07:00,
2013-10-14 03:12:00,40.7,31.0,30.43,South,171,2.0,6.0,68,0.00,,---,0.00,VWS V14.01,2013-10-14 08:12:00,
2013-10-14 03:17:00,40.6,30.9,30.43,South,189,1.0,7.0,68,0.00,,---,0.00,VWS V14.01,2013-10-14 08:17:00,
2013-10-14 03:27:00,40.7,30.6,30.43,South,182,4.0,7.0,67,0.00,,---,0.00,VWS V14.01,2013-10-14 08:27:00,
2013-10-14 03:37:00,40.9,30.1,30.44,SSE,155,7.0,8.0,65,0.00,,---,0.00,VWS V14.01,2013-10-14 08:37:00,
2013-10-14 03:42:00,41.0,30.1,30.44,South,175,2.0,7.0,65,0.00,,---,0.00,VWS V14.01,2013-10-14 08:42:00,
2013-10-14 03:47:00,40.8,30.0,30.44,South,171,4.0,9.0,65,0.00,,---,0.00,VWS V14.01,2013-10-14 08:47:00,
2013-10-14 03:52:00,40.6,30.1,30.44,SSE,163,6.0,9.0,66,0.00,,---,0.00,VWS V14.01,2013-10-14 08:52:00,
2013-10-14 03:57:00,40.5,30.0,30.43,SSE,164,2.0,9.0,66,0.00,,---,0.00,VWS V14.01,2013-10-14 08:57:00,
2013-10-14 04:07:00,40.3,29.9,30.43,South,176,5.0,7.0,66,0.00,,---,0.00,VWS V14.01,2013-10-14 09:07:00,
2013-10-14 04:12:00,40.3,30.2,30.43,South,178,4.0,7.0,67,0.00,,---,0.00,VWS V14.01,2013-10-14 09:12:00,
2013-10-14 04:17:00,40.4,30.0,30.43,South,171,5.0,7.0,66,0.00,,---,0.00,VWS V14.01,2013-10-14 09:17:00,
2013-10-14 04:22:00,40.5,30.0,30.43,South,175,5.0,9.0,66,0.00,,---,0.00,VWS V14.01,2013-10-14 09:22:00,
2013-10-14 04:32:00,40.7,29.9,30.42,SSE,156,4.0,7.0,65,0.00,,---,0.00,VWS V14.01,2013-10-14 09:32:00,
2013-10-14 04:42:00,40.6,29.8,30.43,South,172,4.0,7.0,65,0.00,,---,0.00,VWS V14.01,2013-10-14 09:42:00,
2013-10-14 04:47:00,40.7,29.9,30.42,SSW,192,7.0,9.0,65,0.00,,---,0.00,VWS V14.01,2013-10-14 09:47:00,
2013-10-14 04:52:00,40.8,30.0,30.43,SSE,159,2.0,7.0,65,0.00,,---,0.00,VWS V14.01,2013-10-14 09:52:00,
2013-10-14 04:57:00,40.6,29.8,30.42,SSE,152,6.0,9.0,65,0.00,,---,0.00,VWS V14.01,2013-10-14 09:57:00,
2013-10-14 05:07:00,40.3,29.9,30.42,South,175,5.0,7.0,66,0.00,,---,0.00,VWS V14.01,2013-10-14 10:07:00,
2013-10-14 05:12:00,40.3,29.9,30.42,SSE,167,4.0,8.0,66,0.00,,---,0.00,VWS V14.01,2013-10-14 10:12:00,
2013-10-14 05:22:00,40.4,29.6,30.42,SSE,163,7.0,7.0,65,0.00,,---,0.00,VWS V14.01,2013-10-14 10:22:00,
2013-10-14 05:27:00,40.4,30.0,30.42,SSE,150,4.0,8.0,66,0.00,,---,0.00,VWS V14.01,2013-10-14 10:27:00,
2013-10-14 05:32:00,40.3,29.9,30.42,South,169,5.0,10.0,66,0.00,,---,0.00,VWS V14.01,2013-10-14 10:32:00,
2013-10-14 05:37:00,40.3,29.5,30.42,South,173,3.0,9.0,65,0.00,,---,0.00,VWS V14.01,2013-10-14 10:37:00,
2013-10-14 05:47:00,40.0,29.6,30.41,South,171,3.0,7.0,66,0.00,,---,0.00,VWS V14.01,2013-10-14 10:47:00,
2013-10-14 05:52:00,39.8,29.8,30.41,South,185,6.0,9.0,67,0.00,,---,0.00,VWS V14.01,2013-10-14 10:52:00,
2013-10-14 05:57:00,39.6,29.9,30.41,South,177,5.0,9.0,68,0.00,,---,0.00,VWS V14.01,2013-10-14 10:57:00,
2013-10-14 06:07:00,39.1,29.8,30.42,South,180,4.0,9.0,69,0.00,,---,0.00,VWS V14.01,2013-10-14 11:07:00,
2013-10-14 06:12:00,38.9,29.6,30.42,South,169,1.0,10.0,69,0.00,,---,0.00,VWS V14.01,2013-10-14 11:12:00,
2013-10-14 06:17:00,38.9,29.6,30.42,SSE,156,9.0,9.0,69,0.00,,---,0.00,VWS V14.01,2013-10-14 11:17:00,
2013-10-14 06:22:00,39.3,30.0,30.42,South,179,5.0,10.0,69,0.00,,---,0.00,VWS V14.01,2013-10-14 11:22:00,
2013-10-14 06:27:00,39.3,29.6,30.42,South,181,4.0,9.0,68,0.00,,---,0.00,VWS V14.01,2013-10-14 11:27:00,
2013-10-14 06:32:00,39.5,29.8,30.43,South,175,2.0,9.0,68,0.00,,---,0.00,VWS V14.01,2013-10-14 11:32:00,
2013-10-14 06:37:00,39.4,29.7,30.42,South,171,4.0,9.0,68,0.00,,---,0.00,VWS V14.01,2013-10-14 11:37:00,
2013-10-14 06:42:00,39.3,30.0,30.41,SSE,158,9.0,10.0,69,0.00,,---,0.00,VWS V14.01,2013-10-14 11:42:00,
2013-10-14 06:47:00,39.1,29.8,30.41,SSE,165,3.0,9.0,69,0.00,,---,0.00,VWS V14.01,2013-10-14 11:47:00,
2013-10-14 06:57:00,38.9,29.6,30.40,South,182,2.0,8.0,69,0.00,,---,0.00,VWS V14.01,2013-10-14 11:57:00,
2013-10-14 07:02:00,38.7,29.8,30.40,South,184,4.0,7.0,70,0.00,,---,0.00,VWS V14.01,2013-10-14 12:02:00,
2013-10-14 07:12:00,38.2,30.0,30.40,South,171,4.0,9.0,72,0.00,,---,0.00,VWS V14.01,2013-10-14 12:12:00,
2013-10-14 07:17:00,38.0,29.8,30.40,South,169,3.0,7.0,72,0.00,,---,0.00,VWS V14.01,2013-10-14 12:17:00,
2013-10-14 07:27:00,38.0,29.8,30.40,South,178,7.0,7.0,72,0.00,,---,0.00,VWS V14.01,2013-10-14 12:27:00,
2013-10-14 07:32:00,38.0,29.8,30.40,SSE,164,3.0,7.0,72,0.00,,---,0.00,VWS V14.01,2013-10-14 12:32:00,
2013-10-14 07:42:00,38.0,30.1,30.40,South,170,3.0,7.0,73,0.00,,---,0.00,VWS V14.01,2013-10-14 12:42:00,
2013-10-14 07:47:00,38.1,30.2,30.41,SSE,163,9.0,9.0,73,0.00,,---,0.00,VWS V14.01,2013-10-14 12:47:00,
2013-10-14 07:52:00,38.6,30.4,30.41,SSE,160,5.0,9.0,72,0.00,,---,0.00,VWS V14.01,2013-10-14 12:52:00,
2013-10-14 07:57:00,39.0,30.4,30.41,SSE,165,6.0,10.0,71,0.00,,---,0.00,VWS V14.01,2013-10-14 12:57:00,
2013-10-14 08:07:00,39.5,30.5,30.41,South,185,3.0,10.0,70,0.00,,---,0.00,VWS V14.01,2013-10-14 13:07:00,
2013-10-14 08:12:00,39.8,30.8,30.41,South,190,2.0,10.0,70,0.00,,---,0.00,VWS V14.01,2013-10-14 13:12:00,
2013-10-14 08:22:00,40.5,30.8,30.41,SSW,194,6.0,10.0,68,0.00,,---,0.00,VWS V14.01,2013-10-14 13:22:00,
2013-10-14 08:27:00,40.6,30.9,30.41,South,186,5.0,7.0,68,0.00,,---,0.00,VWS V14.01,2013-10-14 13:27:00,
2013-10-14 08:32:00,40.9,31.2,30.41,South,169,5.0,10.0,68,0.00,,---,0.00,VWS V14.01,2013-10-14 13:32:00,
2013-10-14 08:37:00,41.0,31.3,30.41,South,190,0.0,7.0,68,0.00,,---,0.00,VWS V14.01,2013-10-14 13:37:00,
2013-10-14 08:42:00,41.3,31.2,30.40,SSW,194,4.0,9.0,67,0.00,,---,0.00,VWS V14.01,2013-10-14 13:42:00,
2013-10-14 08:47:00,41.6,31.5,30.40,South,190,5.0,7.0,67,0.00,,---,0.00,VWS V14.01,2013-10-14 13:47:00,
2013-10-14 08:52:00,41.8,31.7,30.40,SSE,160,0.0,7.0,67,0.00,,---,0.00,VWS V14.01,2013-10-14 13:52:00,
2013-10-14 08:57:00,42.0,31.9,30.40,South,174,0.0,7.0,67,0.00,,---,0.00,VWS V14.01,2013-10-14 13:57:00,
2013-10-14 09:02:00,42.2,32.0,30.40,SSE,163,0.0,7.0,67,0.00,,---,0.00,VWS V14.01,2013-10-14 14:02:00,
2013-10-14 09:07:00,42.4,32.2,30.40,South,173,0.0,7.0,67,0.00,,---,0.00,VWS V14.01,2013-10-14 14:07:00,
2013-10-14 09:17:00,42.7,32.5,30.40,SSE,148,7.0,7.0,67,0.00,,---,0.00,VWS V14.01,2013-10-14 14:17:00,
2013-10-14 09:22:00,42.9,32.7,30.41,SSE,165,10.0,10.0,67,0.00,,---,0.00,VWS V14.01,2013-10-14 14:22:00,
2013-10-14 09:27:00,43.2,32.6,30.41,South,180,3.0,10.0,66,0.00,,---,0.00,VWS V14.01,2013-10-14 14:27:00,
2013-10-14 09:37:00,44.1,33.1,30.40,South,172,0.0,8.0,65,0.00,,---,0.00,VWS V14.01,2013-10-14 14:37:00,
2013-10-14 09:42:00,44.5,33.1,30.40,SSE,163,4.0,11.0,64,0.00,,---,0.00,VWS V14.01,2013-10-14 14:42:00,
2013-10-14 09:47:00,44.9,33.5,30.40,SSE,159,0.0,9.0,64,0.00,,---,0.00,VWS V14.01,2013-10-14 14:47:00,
2013-10-14 09:57:00,45.4,33.6,30.40,SSE,151,2.0,6.0,63,0.00,,---,0.00,VWS V14.01,2013-10-14 14:57:00,
2013-10-14 10:02:00,45.6,33.3,30.40,SSE,161,3.0,6.0,62,0.00,,---,0.00,VWS V14.01,2013-10-14 15:02:00,
2013-10-14 10:07:00,45.8,33.5,30.39,SE,130,3.0,6.0,62,0.00,,---,0.00,VWS V14.01,2013-10-14 15:07:00,
2013-10-14 10:12:00,46.1,33.8,30.40,SSE,167,4.0,9.0,62,0.00,,---,0.00,VWS V14.01,2013-10-14 15:12:00,
2013-10-14 10:17:00,46.3,34.0,30.40,SSE,148,4.0,7.0,62,0.00,,---,0.00,VWS V14.01,2013-10-14 15:17:00,
2013-10-14 10:22:00,46.5,34.2,30.40,SSE,150,7.0,7.0,62,0.00,,---,0.00,VWS V14.01,2013-10-14 15:22:00,
2013-10-14 10:32:00,47.0,33.8,30.40,SSE,162,3.0,6.0,60,0.00,,---,0.00,VWS V14.01,2013-10-14 15:32:00,
2013-10-14 10:42:00,47.5,34.3,30.40,South,173,3.0,5.0,60,0.00,,---,0.00,VWS V14.01,2013-10-14 15:42:00,
2013-10-14 10:47:00,47.6,34.0,30.40,South,179,0.0,8.0,59,0.00,,---,0.00,VWS V14.01,2013-10-14 15:47:00,
2013-10-14 10:52:00,47.8,34.6,30.40,South,182,0.0,9.0,60,0.00,,---,0.00,VWS V14.01,2013-10-14 15:52:00,
2013-10-14 10:57:00,47.9,34.3,30.40,SE,129,5.0,10.0,59,0.00,,---,0.00,VWS V14.01,2013-10-14 15:57:00,
2013-10-14 11:02:00,47.9,34.7,30.40,SE,133,0.0,9.0,60,0.00,,---,0.00,VWS V14.01,2013-10-14 16:02:00,
2013-10-14 11:07:00,48.1,34.9,30.40,SE,136,0.0,3.0,60,0.00,,---,0.00,VWS V14.01,2013-10-14 16:07:00,
2013-10-14 11:12:00,48.2,35.0,30.40,SE,145,3.0,7.0,60,0.00,,---,0.00,VWS V14.01,2013-10-14 16:12:00,
2013-10-14 11:22:00,48.5,35.3,30.40,SE,136,0.0,3.0,60,0.00,,---,0.00,VWS V14.01,2013-10-14 16:22:00,
2013-10-14 11:27:00,48.6,35.8,30.39,SE,141,0.0,5.0,61,0.00,,---,0.00,VWS V14.01,2013-10-14 16:27:00,
2013-10-14 11:32:00,48.7,36.3,30.40,SE,125,1.0,5.0,62,0.00,,---,0.00,VWS V14.01,2013-10-14 16:32:00,
2013-10-14 11:42:00,48.5,36.1,30.39,South,180,0.0,7.0,62,0.00,,---,0.00,VWS V14.01,2013-10-14 16:42:00,
2013-10-14 11:52:00,48.7,36.3,30.39,SSE,168,0.0,9.0,62,0.00,,---,0.00,VWS V14.01,2013-10-14 16:52:00,
2013-10-14 11:57:00,48.8,36.4,30.39,South,171,0.0,7.0,62,0.00,,---,0.00,VWS V14.01,2013-10-14 16:57:00,
2013-10-14 12:07:00,49.2,36.8,30.39,SSW,196,1.0,10.0,62,0.00,,---,0.00,VWS V14.01,2013-10-14 17:07:00,
2013-10-14 12:12:00,49.5,36.6,30.39,South,172,3.0,6.0,61,0.00,,---,0.00,VWS V14.01,2013-10-14 17:12:00,
2013-10-14 12:22:00,50.3,37.8,30.38,SE,132,0.0,5.0,62,0.00,,---,0.00,VWS V14.01,2013-10-14 17:22:00,
2013-10-14 12:27:00,50.5,37.2,30.37,SSW,203,0.0,6.0,60,0.00,,---,0.00,VWS V14.01,2013-10-14 17:27:00,
2013-10-14 12:32:00,50.7,36.9,30.37,East,92,5.0,10.0,59,0.00,,---,0.00,VWS V14.01,2013-10-14 17:32:00,
2013-10-14 12:37:00,50.8,37.0,30.37,SSW,194,5.0,9.0,59,0.00,,---,0.00,VWS V14.01,2013-10-14 17:37:00,
2013-10-14 12:42:00,51.1,37.3,30.37,ESE,123,6.0,9.0,59,0.00,,---,0.00,VWS V14.01,2013-10-14 17:42:00,
2013-10-14 12:47:00,51.4,37.1,30.37,SSW,198,10.0,10.0,58,0.00,,---,0.00,VWS V14.01,2013-10-14 17:47:00,
2013-10-14 12:52:00,51.6,36.9,30.36,South,184,9.0,10.0,57,0.00,,---,0.00,VWS V14.01,2013-10-14 17:52:00,
2013-10-14 12:57:00,51.8,37.5,30.36,South,186,1.0,11.0,58,0.00,,---,0.00,VWS V14.01,2013-10-14 17:57:00,
2013-10-14 13:02:00,51.9,36.7,30.36,SE,126,9.0,9.0,56,0.00,,---,0.00,VWS V14.01,2013-10-14 18:02:00,
2013-10-14 13:07:00,52.0,36.8,30.37,East,98,2.0,9.0,56,0.00,,---,0.00,VWS V14.01,2013-10-14 18:07:00,
2013-10-14 13:12:00,52.1,36.4,30.37,SSE,161,4.0,9.0,55,0.00,,---,0.00,VWS V14.01,2013-10-14 18:12:00,
2013-10-14 13:22:00,52.2,36.5,30.35,SE,127,0.0,5.0,55,0.00,,---,0.00,VWS V14.01,2013-10-14 18:22:00,
2013-10-14 13:27:00,52.2,36.5,30.35,ESE,123,1.0,6.0,55,0.00,,---,0.00,VWS V14.01,2013-10-14 18:27:00,
2013-10-14 13:32:00,52.2,36.1,30.35,SSW,196,3.0,6.0,54,0.00,,---,0.00,VWS V14.01,2013-10-14 18:32:00,
2013-10-14 13:37:00,52.3,36.2,30.34,East,90,2.0,5.0,54,0.00,,---,0.00,VWS V14.01,2013-10-14 18:37:00,
2013-10-14 13:47:00,52.3,36.2,30.34,ESE,105,0.0,1.0,54,0.00,,---,0.00,VWS V14.01,2013-10-14 18:47:00,
2013-10-14 13:52:00,52.3,36.6,30.33,SE,134,5.0,5.0,55,0.00,,---,0.00,VWS V14.01,2013-10-14 18:52:00,
2013-10-14 13:57:00,52.4,36.7,30.33,East,101,0.0,6.0,55,0.00,,---,0.00,VWS V14.01,2013-10-14 18:57:00,
2013-10-14 14:02:00,52.7,36.5,30.33,SSW,206,1.0,10.0,54,0.00,,---,0.00,VWS V14.01,2013-10-14 19:02:00,
2013-10-14 14:07:00,52.7,37.0,30.32,SSE,150,0.0,6.0,55,0.00,,---,0.00,VWS V14.01,2013-10-14 19:07:00,
2013-10-14 14:12:00,52.7,36.5,30.32,ESE,103,4.0,7.0,54,0.00,,---,0.00,VWS V14.01,2013-10-14 19:12:00,
2013-10-14 14:17:00,52.8,36.6,30.32,SE,128,0.0,5.0,54,0.00,,---,0.00,VWS V14.01,2013-10-14 19:17:00,
2013-10-14 14:27:00,53.5,37.3,30.31,SSE,152,5.0,5.0,54,0.00,,---,0.00,VWS V14.01,2013-10-14 19:27:00,
2013-10-14 14:37:00,53.9,36.7,30.30,ESE,117,7.0,9.0,52,0.00,,---,0.00,VWS V14.01,2013-10-14 19:37:00,
2013-10-14 14:42:00,53.9,37.2,30.30,East,101,1.0,7.0,53,0.00,,---,0.00,VWS V14.01,2013-10-14 19:42:00,
2013-10-14 14:52:00,53.8,37.1,30.30,South,188,3.0,10.0,53,0.00,,---,0.00,VWS V14.01,2013-10-14 19:52:00,
2013-10-14 14:57:00,53.8,37.1,30.29,East,101,0.0,5.0,53,0.00,,---,0.00,VWS V14.01,2013-10-14 19:57:00,
2013-10-14 15:07:00,53.7,37.0,30.29,ENE,71,0.0,6.0,53,0.00,,---,0.00,VWS V14.01,2013-10-14 20:07:00,
2013-10-14 15:12:00,53.8,36.6,30.29,ENE,76,0.0,4.0,52,0.00,,---,0.00,VWS V14.01,2013-10-14 20:12:00,
2013-10-14 15:22:00,53.8,36.6,30.28,East,79,1.0,9.0,52,0.00,,---,0.00,VWS V14.01,2013-10-14 20:22:00,
2013-10-14 15:27:00,53.7,36.5,30.28,ENE,64,0.0,6.0,52,0.00,,---,0.00,VWS V14.01,2013-10-14 20:27:00,
2013-10-14 15:32:00,53.6,36.4,30.28,ENE,71,0.0,7.0,52,0.00,,---,0.00,VWS V14.01,2013-10-14 20:32:00,
2013-10-14 15:37:00,53.6,36.9,30.28,ENE,75,0.0,5.0,53,0.00,,---,0.00,VWS V14.01,2013-10-14 20:37:00,
2013-10-14 15:42:00,53.6,36.4,30.28,East,79,0.0,4.0,52,0.00,,---,0.00,VWS V14.01,2013-10-14 20:42:00,
2013-10-14 15:47:00,53.6,36.4,30.28,ENE,78,0.0,2.0,52,0.00,,---,0.00,VWS V14.01,2013-10-14 20:47:00,
2013-10-14 15:52:00,53.6,36.4,30.28,ENE,72,1.0,6.0,52,0.00,,---,0.00,VWS V14.01,2013-10-14 20:52:00,
2013-10-14 16:02:00,53.5,36.8,30.28,East,83,0.0,3.0,53,0.00,,---,0.00,VWS V14.01,2013-10-14 21:02:00,
2013-10-14 16:07:00,53.5,36.8,30.28,ESE,115,0.0,5.0,53,0.00,,---,0.00,VWS V14.01,2013-10-14 21:07:00,
2013-10-14 16:17:00,53.5,37.3,30.27,East,84,0.0,3.0,54,0.00,,---,0.00,VWS V14.01,2013-10-14 21:17:00,
2013-10-14 16:22:00,53.4,36.2,30.27,East,100,4.0,5.0,52,0.00,,---,0.00,VWS V14.01,2013-10-14 21:22:00,
2013-10-14 16:27:00,53.3,36.1,30.26,NE,54,2.0,5.0,52,0.00,,---,0.00,VWS V14.01,2013-10-14 21:27:00,
2013-10-14 16:32:00,53.3,37.1,30.26,East,79,0.0,4.0,54,0.00,,---,0.00,VWS V14.01,2013-10-14 21:32:00,
2013-10-14 16:37:00,53.3,36.6,30.26,ENE,78,0.0,4.0,53,0.00,,---,0.00,VWS V14.01,2013-10-14 21:37:00,
2013-10-14 16:47:00,53.0,36.8,30.26,ENE,73,3.0,4.0,54,0.00,,---,0.00,VWS V14.01,2013-10-14 21:47:00,
2013-10-14 16:52:00,52.9,36.7,30.26,ENE,72,0.0,3.0,54,0.00,,---,0.00,VWS V14.01,2013-10-14 21:52:00,
2013-10-14 17:02:00,52.7,37.5,30.26,ENE,72,0.0,2.0,56,0.00,,---,0.00,VWS V14.01,2013-10-14 22:02:00,
2013-10-14 17:07:00,52.6,37.8,30.26,ENE,72,0.0,0.0,57,0.00,,---,0.00,VWS V14.01,2013-10-14 22:07:00,
2013-10-14 17:12:00,52.5,38.2,30.25,ENE,72,0.0,0.0,58,0.00,,---,0.00,VWS V14.01,2013-10-14 22:12:00,
2013-10-14 17:17:00,52.3,38.0,30.25,ENE,72,1.0,1.0,58,0.00,,---,0.00,VWS V14.01,2013-10-14 22:17:00,
2013-10-14 17:22:00,52.1,37.3,30.25,ENE,72,0.0,2.0,57,0.00,,---,0.00,VWS V14.01,2013-10-14 22:22:00,
2013-10-14 17:27:00,52.0,38.1,30.25,East,83,0.0,3.0,59,0.00,,---,0.00,VWS V14.01,2013-10-14 22:27:00,
2013-10-14 17:32:00,52.0,37.2,30.24,ENE,74,0.0,4.0,57,0.00,,---,0.00,VWS V14.01,2013-10-14 22:32:00,
2013-10-14 17:37:00,51.9,37.6,30.24,ENE,61,0.0,5.0,58,0.00,,---,0.00,VWS V14.01,2013-10-14 22:37:00,
2013-10-14 17:42:00,51.8,37.9,30.24,ENE,63,0.0,4.0,59,0.00,,---,0.00,VWS V14.01,2013-10-14 22:42:00,
2013-10-14 17:47:00,51.7,37.8,30.24,ENE,64,0.0,3.0,59,0.00,,---,0.00,VWS V14.01,2013-10-14 22:47:00,
2013-10-14 17:57:00,51.3,38.7,30.25,ENE,65,0.0,0.0,62,0.00,,---,0.00,VWS V14.01,2013-10-14 22:57:00,
2013-10-14 18:02:00,51.0,40.4,30.25,ENE,64,0.0,0.0,67,0.00,,---,0.00,VWS V14.01,2013-10-14 23:02:00,
2013-10-14 18:07:00,50.5,40.7,30.25,ENE,64,0.0,0.0,69,0.00,,---,0.00,VWS V14.01,2013-10-14 23:07:00,
2013-10-14 18:12:00,50.2,40.8,30.25,ENE,64,0.0,0.0,70,0.00,,---,0.00,VWS V14.01,2013-10-14 23:12:00,
2013-10-14 18:17:00,49.9,41.2,30.25,ENE,64,0.0,0.0,72,0.00,,---,0.00,VWS V14.01,2013-10-14 23:17:00,
2013-10-14 18:22:00,49.7,41.0,30.25,ENE,64,0.0,0.0,72,0.00,,---,0.00,VWS V14.01,2013-10-14 23:22:00,
2013-10-14 18:32:00,49.0,41.4,30.25,ENE,64,0.0,0.0,75,0.00,,---,0.00,VWS V14.01,2013-10-14 23:32:00,
2013-10-14 18:37:00,48.6,41.4,30.25,ENE,64,0.0,0.0,76,0.00,,---,0.00,VWS V14.01,2013-10-14 23:37:00,
2013-10-14 18:42:00,48.3,41.4,30.26,ENE,64,0.0,0.0,77,0.00,,---,0.00,VWS V14.01,2013-10-14 23:42:00,
2013-10-14 18:47:00,48.2,41.7,30.26,ENE,64,0.0,0.0,78,0.00,,---,0.00,VWS V14.01,2013-10-14 23:47:00,
2013-10-14 18:57:00,47.8,41.6,30.26,ENE,64,0.0,0.0,79,0.00,,---,0.00,VWS V14.01,2013-10-14 23:57:00,
2013-10-14 19:07:00,47.4,41.5,30.25,ENE,64,0.0,0.0,80,0.00,,---,0.00,VWS V14.01,2013-10-15 00:07:00,
2013-10-14 19:12:00,47.3,41.8,30.25,ENE,64,0.0,0.0,81,0.00,,---,0.00,VWS V14.01,2013-10-15 00:12:00,
2013-10-14 19:17:00,47.2,41.7,30.25,ENE,64,0.0,0.0,81,0.00,,---,0.00,VWS V14.01,2013-10-15 00:17:00,
2013-10-14 19:22:00,47.3,41.8,30.24,ENE,64,0.0,0.0,81,0.00,,---,0.00,VWS V14.01,2013-10-15 00:22:00,
2013-10-14 19:27:00,47.4,41.9,30.24,ENE,64,0.0,0.0,81,0.00,,---,0.00,VWS V14.01,2013-10-15 00:27:00,
2013-10-14 19:32:00,47.4,41.9,30.24,ENE,65,0.0,0.0,81,0.00,,---,0.00,VWS V14.01,2013-10-15 00:32:00,
2013-10-14 19:37:00,47.4,41.9,30.23,ENE,65,0.0,0.0,81,0.00,,---,0.00,VWS V14.01,2013-10-15 00:37:00,
2013-10-14 19:42:00,47.4,41.9,30.23,ENE,64,0.0,0.0,81,0.00,,---,0.00,VWS V14.01,2013-10-15 00:42:00,
2013-10-14 19:52:00,47.3,41.8,30.23,ENE,65,0.0,0.0,81,0.00,,---,0.00,VWS V14.01,2013-10-15 00:52:00,
2013-10-14 19:57:00,47.3,41.8,30.24,ENE,65,0.0,0.0,81,0.00,,---,0.00,VWS V14.01,2013-10-15 00:57:00,
2013-10-14 20:02:00,47.3,41.8,30.23,ENE,65,0.0,0.0,81,0.00,,---,0.00,VWS V14.01,2013-10-15 01:02:00,
2013-10-14 20:12:00,47.0,41.5,30.22,ENE,65,0.0,0.0,81,0.00,,---,0.00,VWS V14.01,2013-10-15 01:12:00,
2013-10-14 20:17:00,47.0,41.2,30.22,ENE,64,0.0,0.0,80,0.00,,---,0.00,VWS V14.01,2013-10-15 01:17:00,
2013-10-14 20:22:00,47.1,41.3,30.22,ENE,65,0.0,0.0,80,0.00,,---,0.00,VWS V14.01,2013-10-15 01:22:00,
2013-10-14 20:32:00,46.9,41.4,30.22,ENE,65,0.0,0.0,81,0.00,,---,0.00,VWS V14.01,2013-10-15 01:32:00,
2013-10-14 20:37:00,46.6,41.4,30.22,ENE,65,0.0,0.0,82,0.00,,---,0.00,VWS V14.01,2013-10-15 01:37:00,
2013-10-14 20:42:00,46.2,41.0,30.22,ENE,64,0.0,0.0,82,0.00,,---,0.00,VWS V14.01,2013-10-15 01:42:00,
2013-10-14 20:47:00,46.2,41.0,30.21,ENE,75,0.0,4.0,82,0.00,,---,0.00,VWS V14.01,2013-10-15 01:47:00,
2013-10-14 20:52:00,46.3,40.8,30.21,ENE,75,0.0,0.0,81,0.00,,---,0.00,VWS V14.01,2013-10-15 01:52:00,
2013-10-14 21:02:00,46.6,40.1,30.20,ENE,74,0.0,2.0,78,0.00,,---,0.00,VWS V14.01,2013-10-15 02:02:00,
2013-10-14 21:07:00,46.8,40.0,30.20,ENE,74,0.0,2.0,77,0.00,,---,0.00,VWS V14.01,2013-10-15 02:07:00,
2013-10-14 21:17:00,47.1,39.2,30.20,ENE,75,0.0,2.0,74,0.00,,---,0.00,VWS V14.01,2013-10-15 02:17:00,
2013-10-14 21:22:00,47.2,39.3,30.20,ENE,75,0.0,0.0,74,0.00,,---,0.00,VWS V14.01,2013-10-15 02:22:00,
2013-10-14 21:27:00,47.1,39.2,30.20,ENE,75,0.0,0.0,74,0.00,,---,0.00,VWS V14.01,2013-10-15 02:27:00,
2013-10-14 21:32:00,46.9,39.7,30.19,ENE,75,0.0,0.0,76,0.00,,---,0.00,VWS V14.01,2013-10-15 02:32:00,
2013-10-14 21:42:00,46.7,39.2,30.19,East,80,0.0,0.0,75,0.00,,---,0.00,VWS V14.01,2013-10-15 02:42:00,
2013-10-14 21:47:00,46.8,39.0,30.19,ENE,73,0.0,4.0,74,0.00,,---,0.00,VWS V14.01,2013-10-15 02:47:00,
2013-10-14 21:52:00,46.9,39.1,30.19,ENE,72,0.0,0.0,74,0.00,,---,0.00,VWS V14.01,2013-10-15 02:52:00,
2013-10-14 21:57:00,46.9,38.7,30.19,ENE,73,0.0,0.0,73,0.00,,---,0.00,VWS V14.01,2013-10-15 02:57:00,
2013-10-14 22:07:00,46.7,39.2,30.19,ENE,72,0.0,0.0,75,0.00,,---,0.00,VWS V14.01,2013-10-15 03:07:00,
2013-10-14 22:12:00,46.5,39.4,30.18,ENE,72,0.0,0.0,76,0.00,,---,0.00,VWS V14.01,2013-10-15 03:12:00,
2013-10-14 22:17:00,46.2,39.4,30.18,ENE,73,0.0,0.0,77,0.00,,---,0.00,VWS V14.01,2013-10-15 03:17:00,
2013-10-14 22:27:00,45.8,39.7,30.19,ENE,72,0.0,0.0,79,0.00,,---,0.00,VWS V14.01,2013-10-15 03:27:00,
2013-10-14 22:37:00,45.4,39.6,30.18,ENE,73,0.0,0.0,80,0.00,,---,0.00,VWS V14.01,2013-10-15 03:37:00,
2013-10-14 22:42:00,45.2,38.8,30.18,ENE,73,0.0,0.0,78,0.00,,---,0.00,VWS V14.01,2013-10-15 03:42:00,
2013-10-14 22:47:00,45.4,38.6,30.17,ENE,72,0.0,0.0,77,0.00,,---,0.00,VWS V14.01,2013-10-15 03:47:00,
2013-10-14 22:52:00,45.6,38.8,30.17,ENE,73,0.0,0.0,77,0.00,,---,0.00,VWS V14.01,2013-10-15 03:52:00,
2013-10-14 22:57:00,45.8,38.3,30.16,ENE,73,0.0,0.0,75,0.00,,---,0.00,VWS V14.01,2013-10-15 03:57:00,
2013-10-14 23:02:00,46.1,39.0,30.16,ENE,72,0.0,0.0,76,0.00,,---,0.00,VWS V14.01,2013-10-15 04:02:00,
2013-10-14 23:07:00,46.1,39.0,30.16,ENE,73,0.0,2.0,76,0.00,,---,0.00,VWS V14.01,2013-10-15 04:07:00,
2013-10-14 23:12:00,46.1,39.0,30.16,ENE,73,0.0,0.0,76,0.00,,---,0.00,VWS V14.01,2013-10-15 04:12:00,
2013-10-14 23:22:00,45.8,39.0,30.15,ENE,73,0.0,0.0,77,0.00,,---,0.00,VWS V14.01,2013-10-15 04:22:00,
2013-10-14 23:27:00,45.7,38.9,30.15,ENE,72,1.0,1.0,77,0.00,,---,0.00,VWS V14.01,2013-10-15 04:27:00,
2013-10-14 23:32:00,45.8,39.0,30.15,ENE,73,0.0,3.0,77,0.00,,---,0.00,VWS V14.01,2013-10-15 04:32:00,
2013-10-14 23:37:00,45.9,39.1,30.15,ENE,73,0.0,0.0,77,0.00,,---,0.00,VWS V14.01,2013-10-15 04:37:00,
2013-10-14 23:42:00,45.9,38.8,30.15,ENE,72,0.0,0.0,76,0.00,,---,0.00,VWS V14.01,2013-10-15 04:42:00,
2013-10-14 23:47:00,46.0,38.5,30.15,ENE,73,0.0,1.0,75,0.00,,---,0.00,VWS V14.01,2013-10-15 04:47:00,
2013-10-14 23:52:00,46.0,38.9,30.14,ENE,73,0.0,2.0,76,0.00,,---,0.00,VWS V14.01,2013-10-15 04:52:00,
2013-10-14 23:57:00,46.0,38.9,30.14,ENE,73,0.0,1.0,76,0.00,,---,0.00,VWS V14.01,2013-10-15 04:57:00,